Terminal Aerodrome Forecast
Issued by NWS

Home | Current Version | Previous Version | Text Only | Print | Product List | Glossary On
Versions: 1 2 3 4 5 6 7 8 9 10 11 12 13 14 15 16 17 18 19 20
000
FTUS43 KAPX 232330
TAFPLN
TAF
KPLN 232330Z 2400/2424 25004KT P6SM BKN050
     FM241000 21009KT P6SM BKN080 WS020/23040KT
     FM241400 21012KT P6SM BKN110 WS020/23050KT
     FM241800 22012G20KT P6SM OVC050 WS020/24040KT
     FM242200 22011G19KT P6SM OVC050=

USA.gov is the U.S. government's official web portal to all federal, state and local government web resources and services.